Time;durP1;ratioP1;P1;durP2;ratioP2;P2;SDS_P1;SDS_P2;PMS_P1;PMS_P2;Temp;Humidity;BMP_temperature;BMP_pressure;BME280_temperature;BME280_humidity;BME280_pressure;Samples;Min_cycle;Max_cycle;Signal;HPM_P1;HPM_P2
2022/03/12 00:00:36;;;;;;;;;;;;;;;-6.15;78.26;100855.75;5054335;28;905;-58
2022/03/12 00:03:02;;;;;;;;;;;;;;;-6.18;77.99;100845.53;5054660;28;914;-57
2022/03/12 00:05:35;;;;;;;;;;;;;;;-6.17;78.58;100855.19;5053857;28;967;-58
2022/03/12 00:08:05;;;;;;;;;;;;;;;-6.11;78.56;100851.44;5068743;28;891;-58
2022/03/12 00:10:34;;;;;;;;;;;;;;;-6.10;79.11;100854.94;5053975;28;831;-58
2022/03/12 00:13:01;;;;;;;;;;;;;;;-6.11;79.66;100847.94;5053860;28;965;-58
2022/03/12 00:15:31;;;;;;;;;;;;;;;-6.10;79.49;100849.56;5052514;28;1941;-58
2022/03/12 00:17:58;;;;;;;;;;;;;;;-6.12;79.76;100849.84;5054136;28;912;-59
2022/03/12 00:20:26;;;;;;;;;;;;;;;-6.19;80.65;100838.50;5053803;28;795;-58
2022/03/12 00:22:53;;;;;;;;;;;;;;;-6.21;80.16;100838.78;5053607;28;1012;-58
2022/03/12 00:25:22;;;;;;;;;;;;;;;-6.28;80.65;100842.78;5053639;28;934;-58
2022/03/12 00:27:51;;;;;;;;;;;;;;;-6.34;80.46;100843.84;5053614;28;839;-56
2022/03/12 00:30:19;;;;;;;;;;;;;;;-6.39;81.32;100845.44;5068941;28;903;-58
2022/03/12 00:32:47;;;;;;;;;;;;;;;-6.37;80.77;100843.28;5053249;28;1220;-58
2022/03/12 00:35:15;;;;;;;;;;;;;;;-6.42;80.31;100832.53;5053836;28;1914;-58
2022/03/12 00:37:41;;;;;;;;;;;;;;;-6.45;78.73;100832.25;5053408;28;823;-61
2022/03/12 00:40:08;;;;;;;;;;;;;;;-6.37;78.12;100818.28;5053351;28;890;-56
2022/03/12 00:42:35;;;;;;;;;;;;;;;-6.30;76.93;100820.72;5053397;28;858;-58
2022/03/12 00:45:02;;;;;;;;;;;;;;;-6.26;76.94;100822.59;5053515;28;933;-57
2022/03/12 00:47:28;;;;;;;;;;;;;;;-6.28;76.55;100823.97;5053234;28;890;-59
2022/03/12 00:49:55;;;;;;;;;;;;;;;-6.26;76.53;100816.44;5051960;28;1331;-59
2022/03/12 00:52:22;;;;;;;;;;;;;;;-6.25;76.83;100820.72;5053400;28;862;-58
2022/03/12 00:54:48;;;;;;;;;;;;;;;-6.23;76.73;100822.09;5053289;28;1949;-59
2022/03/12 00:57:15;;;;;;;;;;;;;;;-6.24;77.31;100825.03;5053141;28;815;-58
2022/03/12 00:59:42;;;;;;;;;;;;;;;-6.24;76.48;100825.03;5052991;28;819;-58
2022/03/12 01:02:14;;;;;;;;;;;;;;;-6.29;75.90;100809.69;5053169;28;812;-59
2022/03/12 01:04:41;;;;;;;;;;;;;;;-6.23;75.11;100805.13;5052755;28;811;-58
2022/03/12 01:07:09;;;;;;;;;;;;;;;-6.22;74.49;100812.94;5053057;28;807;-58
2022/03/12 01:09:36;;;;;;;;;;;;;;;-6.23;74.62;100800.56;5052924;28;882;-58
2022/03/12 01:12:02;;;;;;;;;;;;;;;-6.19;74.22;100812.41;5051575;28;957;-58
2022/03/12 01:14:29;;;;;;;;;;;;;;;-6.16;74.52;100805.69;5052835;28;1947;-58
2022/03/12 01:16:56;;;;;;;;;;;;;;;-6.17;74.44;100809.44;5052912;28;898;-58
2022/03/12 01:19:23;;;;;;;;;;;;;;;-6.20;74.85;100808.09;5053091;28;811;-58
2022/03/12 01:21:49;;;;;;;;;;;;;;;-6.19;75.44;100792.75;5053144;28;811;-58
2022/03/12 01:24:16;;;;;;;;;;;;;;;-6.22;76.10;100815.63;5052842;28;858;-59
2022/03/12 01:26:43;;;;;;;;;;;;;;;-6.26;76.51;100811.03;5052719;28;925;-58
2022/03/12 01:29:09;;;;;;;;;;;;;;;-6.37;76.77;100797.56;5052925;28;828;-58
2022/03/12 01:31:36;;;;;;;;;;;;;;;-6.39;77.12;100806.97;5053074;28;831;-58
2022/03/12 01:34:03;;;;;;;;;;;;;;;-6.37;77.51;100807.53;5052067;28;1909;-58
2022/03/12 01:36:29;;;;;;;;;;;;;;;-6.38;77.90;100808.56;5052386;28;819;-57
2022/03/12 01:38:57;;;;;;;;;;;;;;;-6.41;77.03;100807.22;5052230;28;957;-58
2022/03/12 01:41:25;;;;;;;;;;;;;;;-6.41;77.15;100818.00;5052229;28;899;-58
2022/03/12 01:43:53;;;;;;;;;;;;;;;-6.43;76.76;100806.69;5052362;28;950;-59
2022/03/12 01:46:27;;;;;;;;;;;;;;;-6.52;75.81;100799.41;5052274;28;964;-58
2022/03/12 01:48:53;;;;;;;;;;;;;;;-6.67;73.74;100805.53;5050920;28;1409;-58
2022/03/12 01:51:20;;;;;;;;;;;;;;;-6.80;73.12;100796.88;5052137;28;910;-58
2022/03/12 01:53:47;;;;;;;;;;;;;;;-6.92;73.88;100801.66;5052070;28;898;-58
2022/03/12 01:56:14;;;;;;;;;;;;;;;-6.92;73.32;100798.97;5051916;28;1933;-58
2022/03/12 01:58:44;;;;;;;;;;;;;;;-7.00;73.44;100805.66;5051863;28;927;-59
2022/03/12 02:01:11;;;;;;;;;;;;;;;-7.15;73.23;100800.19;5051899;28;875;-59
2022/03/12 02:03:37;;;;;;;;;;;;;;;-7.19;73.65;100796.38;5051715;28;922;-58
2022/03/12 02:06:05;;;;;;;;;;;;;;;-7.18;73.26;100804.19;5051740;28;926;-59
2022/03/12 02:08:31;;;;;;;;;;;;;;;-7.21;74.00;100806.59;5051704;28;874;-58
2022/03/12 02:10:59;;;;;;;;;;;;;;;-7.16;73.00;100805.84;5051684;28;961;-58
2022/03/12 02:13:27;;;;;;;;;;;;;;;-7.18;73.79;100804.19;5051619;28;960;-58
2022/03/12 02:16:20;;;;;;;;;;;;;;;-7.25;74.14;100795.56;5050951;28;1977;-58
2022/03/12 02:18:48;;;;;;;;;;;;;;;-7.29;74.10;100788.28;5051420;28;1921;-59
2022/03/12 02:21:15;;;;;;;;;;;;;;;-7.31;73.78;100801.16;5051842;28;1007;-59
2022/03/12 02:23:49;;;;;;;;;;;;;;;-7.35;73.61;100792.81;5051494;28;949;-57
2022/03/12 02:26:16;;;;;;;;;;;;;;;-7.32;72.90;100797.66;5051528;28;831;-59
2022/03/12 02:28:45;;;;;;;;;;;;;;;-7.33;73.57;100801.41;5051426;28;946;-57
2022/03/12 02:31:13;;;;;;;;;;;;;;;-7.33;73.38;100788.00;5051424;28;927;-56
2022/03/12 02:33:39;;;;;;;;;;;;;;;-7.36;73.78;100799.25;5051026;28;1387;-59
2022/03/12 02:36:07;;;;;;;;;;;;;;;-7.27;73.39;100810.34;5051313;28;1989;-57
2022/03/12 02:38:35;;;;;;;;;;;;;;;-7.20;73.28;100792.91;5051242;28;989;-58
2022/03/12 02:41:10;;;;;;;;;;;;;;;-7.03;72.76;100800.78;5051303;28;952;-59
2022/03/12 02:43:37;;;;;;;;;;;;;;;-6.99;73.09;100785.75;5051333;28;1166;-57
2022/03/12 02:46:03;;;;;;;;;;;;;;;-6.96;73.22;100823.94;5051318;28;859;-59
2022/03/12 02:48:32;;;;;;;;;;;;;;;-6.96;73.35;100816.69;5051210;28;847;-59
2022/03/12 02:50:58;;;;;;;;;;;;;;;-7.04;73.40;100825.22;5051227;28;933;-60
2022/03/12 02:53:25;;;;;;;;;;;;;;;-7.03;73.43;100824.19;5051462;28;845;-59
2022/03/12 02:55:52;;;;;;;;;;;;;;;-6.95;72.86;100820.19;5051211;28;1894;-57
2022/03/12 02:58:19;;;;;;;;;;;;;;;-6.96;73.00;100829.31;5051239;28;926;-59
2022/03/12 03:00:47;;;;;;;;;;;;;;;-7.07;73.05;100823.88;5051141;28;961;-59
2022/03/12 03:03:13;;;;;;;;;;;;;;;-7.12;73.38;100813.09;5051044;28;851;-59
2022/03/12 03:05:47;;;;;;;;;;;;;;;-7.16;73.56;100824.63;5051321;28;807;-60
2022/03/12 03:08:18;;;;;;;;;;;;;;;-7.20;72.64;100818.97;5051228;28;929;-59
2022/03/12 03:10:46;;;;;;;;;;;;;;;-7.06;71.92;100819.31;5051055;28;906;-59
2022/03/12 03:13:16;;;;;;;;;;;;;;;-6.96;71.61;100816.69;5051043;28;901;-58
2022/03/12 03:15:50;;;;;;;;;;;;;;;-6.97;71.71;100812.38;5050909;28;1886;-58
2022/03/12 03:18:17;;;;;;;;;;;;;;;-6.91;71.76;100834.72;5050838;28;1049;-58
2022/03/12 03:20:45;;;;;;;;;;;;;;;-6.84;72.29;100819.16;5050954;28;855;-59
2022/03/12 03:23:12;;;;;;;;;;;;;;;-6.91;72.99;100823.97;5051198;28;897;-59
2022/03/12 03:25:39;;;;;;;;;;;;;;;-6.86;73.30;100822.13;5050938;28;920;-58
2022/03/12 03:28:06;;;;;;;;;;;;;;;-6.87;73.83;100815.13;5053933;28;803;-58
2022/03/12 03:30:36;;;;;;;;;;;;;;;-6.88;73.46;100823.44;5054564;28;891;-59
2022/03/12 03:33:07;;;;;;;;;;;;;;;-6.97;74.73;100817.75;5058558;28;1424;-59
2022/03/12 03:35:33;;;;;;;;;;;;;;;-6.99;75.20;100814.53;5054817;28;1910;-59
2022/03/12 03:38:00;;;;;;;;;;;;;;;-6.99;76.29;100820.69;5054649;28;810;-58
2022/03/12 03:40:26;;;;;;;;;;;;;;;-7.08;76.27;100822.28;5054535;28;831;-58
2022/03/12 03:42:53;;;;;;;;;;;;;;;-7.12;75.75;100810.41;5054629;28;855;-58
2022/03/12 03:45:22;;;;;;;;;;;;;;;-7.18;75.66;100816.81;5054491;28;859;-59
2022/03/12 03:47:50;;;;;;;;;;;;;;;-7.18;74.56;100808.78;5054366;28;932;-59
2022/03/12 03:50:25;;;;;;;;;;;;;;;-7.16;75.08;100813.91;5054418;28;783;-59
2022/03/12 03:53:03;;;;;;;;;;;;;;;-7.21;74.85;100809.28;5054263;28;966;-59
2022/03/12 03:55:33;;;;;;;;;;;;;;;-7.29;74.83;100807.91;5054156;28;1889;-59
2022/03/12 03:58:00;;;;;;;;;;;;;;;-7.14;74.17;100799.13;5052890;28;1301;-59
2022/03/12 04:00:27;;;;;;;;;;;;;;;-7.13;74.51;100806.09;5054071;28;941;-59
2022/03/12 04:03:04;;;;;;;;;;;;;;;-7.16;73.53;100808.53;5054118;28;950;-58
2022/03/12 04:05:31;;;;;;;;;;;;;;;-7.05;73.41;100804.81;5053988;28;950;-59
2022/03/12 04:07:59;;;;;;;;;;;;;;;-7.04;72.94;100792.97;5054045;28;902;-59
2022/03/12 04:10:29;;;;;;;;;;;;;;;-7.11;73.93;100771.72;5053943;28;941;-57
2022/03/12 04:12:57;;;;;;;;;;;;;;;-6.95;73.24;100777.19;5069322;28;1210;-58
2022/03/12 04:15:24;;;;;;;;;;;;;;;-6.97;72.85;100796.25;5054109;28;1894;-59
2022/03/12 04:17:51;;;;;;;;;;;;;;;-6.96;72.87;100775.56;5054470;28;987;-58
2022/03/12 04:20:21;;;;;;;;;;;;;;;-7.01;73.20;100776.34;5054090;28;831;-58
2022/03/12 04:22:48;;;;;;;;;;;;;;;-7.01;72.66;100773.66;5053774;28;914;-56
2022/03/12 04:25:15;;;;;;;;;;;;;;;-6.92;73.08;100771.28;5053737;28;862;-58
2022/03/12 04:27:44;;;;;;;;;;;;;;;-6.94;72.74;100779.59;5053577;28;949;-58
2022/03/12 04:30:12;;;;;;;;;;;;;;;-6.89;73.19;100792.25;5053835;28;873;-59
2022/03/12 04:32:39;;;;;;;;;;;;;;;-6.94;74.26;100782.28;5053208;28;1248;-59
2022/03/12 04:35:06;;;;;;;;;;;;;;;-6.94;74.22;100782.28;5053508;28;1977;-58
2022/03/12 04:37:35;;;;;;;;;;;;;;;-6.89;73.95;100778.81;5053405;28;1037;-58
2022/03/12 04:40:03;;;;;;;;;;;;;;;-6.82;73.70;100788.25;5052646;28;926;-59
2022/03/12 04:42:30;;;;;;;;;;;;;;;-6.86;73.66;100781.00;5053332;28;954;-58
2022/03/12 04:44:56;;;;;;;;;;;;;;;-6.83;74.31;100791.22;5053632;28;1007;-58
2022/03/12 04:47:24;;;;;;;;;;;;;;;-6.73;73.63;100796.63;5053407;28;874;-57
2022/03/12 04:49:51;;;;;;;;;;;;;;;-6.70;73.75;100816.81;5053499;28;925;-54
2022/03/12 04:52:18;;;;;;;;;;;;;;;-6.69;73.75;100808.47;5053300;28;977;-57
2022/03/12 04:54:45;;;;;;;;;;;;;;;-6.73;74.02;100806.59;5053120;28;1953;-56
2022/03/12 04:57:11;;;;;;;;;;;;;;;-6.83;74.37;100815.41;5053100;28;906;-58
2022/03/12 04:59:37;;;;;;;;;;;;;;;-6.83;74.10;100810.03;5052991;28;826;-58
2022/03/12 05:02:09;;;;;;;;;;;;;;;-6.76;73.59;100818.69;5053023;28;948;-58
2022/03/12 05:04:35;;;;;;;;;;;;;;;-6.78;74.05;100818.13;5053024;28;902;-57
2022/03/12 05:07:06;;;;;;;;;;;;;;;-6.77;73.78;100823.22;5052962;28;826;-58
2022/03/12 05:09:32;;;;;;;;;;;;;;;-6.70;72.71;100824.88;5053127;28;839;-58
2022/03/12 05:12:04;;;;;;;;;;;;;;;-6.59;72.52;100802.34;5052835;28;811;-58
2022/03/12 05:14:32;;;;;;;;;;;;;;;-6.53;72.11;100828.16;5052666;28;1895;-57
2022/03/12 05:16:59;;;;;;;;;;;;;;;-6.33;71.43;100818.56;5052876;28;1052;-57
2022/03/12 05:19:26;;;;;;;;;;;;;;;-6.09;70.95;100830.47;5052626;28;887;-58
2022/03/12 05:21:53;;;;;;;;;;;;;;;-5.81;69.62;100845.28;5052732;28;854;-59
2022/03/12 05:24:19;;;;;;;;;;;;;;;-5.66;68.82;100825.63;5052470;28;900;-57
2022/03/12 05:26:46;;;;;;;;;;;;;;;-5.41;67.28;100815.94;5052509;28;906;-56
2022/03/12 05:29:12;;;;;;;;;;;;;;;-5.22;66.54;100848.53;5052355;28;968;-56
2022/03/12 05:31:39;;;;;;;;;;;;;;;-5.08;65.43;100833.41;5052423;28;931;-56
2022/03/12 05:34:06;;;;;;;;;;;;;;;-4.82;65.02;100830.63;5052111;28;1213;-58
2022/03/12 05:36:32;;;;;;;;;;;;;;;-4.70;64.55;100835.75;5052400;28;1001;-58
2022/03/12 05:38:59;;;;;;;;;;;;;;;-4.67;64.31;100843.28;5052303;28;888;-58
2022/03/12 05:41:26;;;;;;;;;;;;;;;-4.43;63.73;100838.88;5051028;28;1395;-56
2022/03/12 05:43:53;;;;;;;;;;;;;;;-4.43;63.83;100846.16;5052284;28;925;-59
2022/03/12 05:46:21;;;;;;;;;;;;;;;-4.13;62.61;100816.31;5052176;28;815;-60
2022/03/12 05:48:48;;;;;;;;;;;;;;;-3.99;62.33;100834.59;5052160;28;961;-59
2022/03/12 05:51:14;;;;;;;;;;;;;;;-3.98;62.03;100825.41;5051130;28;834;-57
2022/03/12 05:53:44;;;;;;;;;;;;;;;-4.03;62.93;100852.44;5052021;28;856;-58
2022/03/12 05:56:10;;;;;;;;;;;;;;;-3.77;62.23;100851.19;5051885;28;1882;-58
2022/03/12 05:58:39;;;;;;;;;;;;;;;-3.74;62.39;100872.25;5051939;28;823;-59
2022/03/12 06:01:06;;;;;;;;;;;;;;;-3.86;62.25;100863.69;5052534;28;792;-58
2022/03/12 06:03:33;;;;;;;;;;;;;;;-3.98;62.94;100874.81;5052280;28;835;-57
2022/03/12 06:05:59;;;;;;;;;;;;;;;-4.06;63.29;100883.50;5051820;28;851;-57
2022/03/12 06:08:29;;;;;;;;;;;;;;;-4.12;63.52;100869.25;5052072;28;979;-58
2022/03/12 06:10:57;;;;;;;;;;;;;;;-3.80;63.16;100875.25;5052181;28;1073;-56
2022/03/12 06:13:25;;;;;;;;;;;;;;;-4.11;63.86;100897.84;5051679;28;901;-57
2022/03/12 06:16:02;;;;;;;;;;;;;;;-4.47;64.78;100885.59;5051541;28;1952;-57
2022/03/12 06:18:30;;;;;;;;;;;;;;;-4.50;65.44;100889.66;5051644;28;1283;-58
2022/03/12 06:20:57;;;;;;;;;;;;;;;-4.25;66.00;100904.91;5051658;28;906;-59
2022/03/12 06:23:23;;;;;;;;;;;;;;;-3.79;63.77;100899.31;5051511;28;973;-58
2022/03/12 06:25:50;;;;;;;;;;;;;;;-3.11;63.26;100905.84;5051625;28;858;-59
2022/03/12 06:28:17;;;;;;;;;;;;;;;-2.74;60.46;100907.94;5051361;28;933;-59
2022/03/12 06:30:43;;;;;;;;;;;;;;;-2.61;60.56;100884.78;5051574;28;839;-57
2022/03/12 06:33:10;;;;;;;;;;;;;;;-2.87;60.58;100912.09;5051203;28;1205;-58
2022/03/12 06:35:37;;;;;;;;;;;;;;;-2.57;60.84;100903.97;5051426;28;1977;-57
2022/03/12 06:38:03;;;;;;;;;;;;;;;-2.76;61.46;100902.00;5050191;28;1588;-59
2022/03/12 06:40:30;;;;;;;;;;;;;;;-3.04;60.58;100911.72;5051438;28;783;-58
2022/03/12 06:42:58;;;;;;;;;;;;;;;-3.08;61.81;100913.38;5051472;28;822;-59
2022/03/12 06:45:26;;;;;;;;;;;;;;;-2.64;61.36;100917.84;5051271;28;866;-58
2022/03/12 06:47:52;;;;;;;;;;;;;;;-2.50;61.60;100912.56;5051354;28;854;-58
2022/03/12 06:50:21;;;;;;;;;;;;;;;-2.43;61.05;100902.19;5051215;28;897;-58
2022/03/12 06:52:50;;;;;;;;;;;;;;;-2.65;60.82;100927.06;5051322;28;906;-59
2022/03/12 06:55:18;;;;;;;;;;;;;;;-2.85;60.88;100906.41;5051085;28;1894;-56
2022/03/12 06:57:46;;;;;;;;;;;;;;;-3.05;61.36;100909.31;5051196;28;795;-58
2022/03/12 07:00:16;;;;;;;;;;;;;;;-2.72;62.61;100913.84;5051214;28;819;-58
2022/03/12 07:02:42;;;;;;;;;;;;;;;-2.49;61.36;100906.06;5054015;28;928;-56
2022/03/12 07:05:10;;;;;;;;;;;;;;;-2.29;61.66;100896.88;5055355;28;869;-57
2022/03/12 07:07:36;;;;;;;;;;;;;;;-2.42;61.13;100895.69;5055689;28;859;-57
2022/03/12 07:10:04;;;;;;;;;;;;;;;-2.73;62.67;100890.59;5055757;28;882;-56
2022/03/12 07:12:31;;;;;;;;;;;;;;;-2.77;62.79;100896.88;5055429;28;795;-58
2022/03/12 07:14:57;;;;;;;;;;;;;;;-2.49;62.02;100901.44;5055507;28;1889;-57
2022/03/12 07:17:24;;;;;;;;;;;;;;;-2.51;61.52;100890.09;5055509;28;883;-57
2022/03/12 07:19:51;;;;;;;;;;;;;;;-2.39;60.72;100881.59;5055418;28;799;-57
2022/03/12 07:22:17;;;;;;;;;;;;;;;-2.29;61.39;100886.84;5055560;28;815;-57
2022/03/12 07:24:44;;;;;;;;;;;;;;;-1.75;60.61;100895.66;5054803;28;863;-57
2022/03/12 07:27:12;;;;;;;;;;;;;;;-1.57;58.11;100866.91;5054882;28;850;-55
2022/03/12 07:29:39;;;;;;;;;;;;;;;-2.08;60.27;100889.31;5054739;28;998;-57
2022/03/12 07:32:05;;;;;;;;;;;;;;;-2.32;60.50;100870.41;5054674;28;839;-55
2022/03/12 07:34:32;;;;;;;;;;;;;;;-1.89;60.21;100873.06;5053228;28;1902;-56
2022/03/12 07:36:58;;;;;;;;;;;;;;;-1.36;58.30;100889.09;5054717;28;814;-56
2022/03/12 07:39:25;;;;;;;;;;;;;;;-1.87;59.34;100897.97;5054554;28;896;-56
2022/03/12 07:41:52;;;;;;;;;;;;;;;-1.69;60.29;100907.19;5054539;28;898;-57
2022/03/12 07:44:18;;;;;;;;;;;;;;;-1.40;58.65;100915.19;5054413;28;897;-57
2022/03/12 07:46:45;;;;;;;;;;;;;;;-1.08;58.31;100919.03;5054459;28;999;-57
2022/03/12 07:49:13;;;;;;;;;;;;;;;0.11;55.19;100907.56;5054421;28;898;-58
2022/03/12 07:51:43;;;;;;;;;;;;;;;-0.97;56.02;100909.59;5054290;28;961;-58
2022/03/12 07:54:10;;;;;;;;;;;;;;;-0.90;56.56;100930.94;5054789;28;958;-57
2022/03/12 07:56:38;;;;;;;;;;;;;;;-1.08;57.60;100940.75;5054267;28;2038;-57
2022/03/12 07:59:05;;;;;;;;;;;;;;;-1.90;58.26;100967.13;5054684;28;918;-58
2022/03/12 08:01:33;;;;;;;;;;;;;;;-2.43;60.69;100950.94;5054301;28;978;-58
2022/03/12 08:04:01;;;;;;;;;;;;;;;-2.21;60.37;100972.09;5052820;28;887;-58
2022/03/12 08:06:28;;;;;;;;;;;;;;;-2.15;61.05;100972.84;5054084;28;831;-57
2022/03/12 08:08:56;;;;;;;;;;;;;;;-2.30;60.22;100971.91;5053965;28;919;-57
2022/03/12 08:11:27;;;;;;;;;;;;;;;-2.67;61.34;100959.84;5054006;28;962;-58
2022/03/12 08:13:58;;;;;;;;;;;;;;;-2.12;60.32;100964.94;5052822;28;933;-57
2022/03/12 08:16:25;;;;;;;;;;;;;;;-2.15;59.98;100953.88;5053871;28;1886;-56
2022/03/12 08:18:51;;;;;;;;;;;;;;;-1.95;60.76;100972.59;5053834;28;843;-56
2022/03/12 08:21:20;;;;;;;;;;;;;;;-1.95;60.57;100966.38;5053823;28;843;-57
2022/03/12 08:23:47;;;;;;;;;;;;;;;-2.05;61.25;100956.44;5053753;28;937;-57
2022/03/12 08:26:14;;;;;;;;;;;;;;;-1.94;61.28;100957.13;5053653;28;894;-57
2022/03/12 08:28:41;;;;;;;;;;;;;;;-1.76;61.02;100959.06;5053718;28;859;-57
2022/03/12 08:31:08;;;;;;;;;;;;;;;-1.39;60.70;100948.53;5053674;28;871;-57
2022/03/12 08:33:37;;;;;;;;;;;;;;;-1.48;61.09;100951.91;5053365;28;1403;-57
2022/03/12 08:36:05;;;;;;;;;;;;;;;-1.49;59.90;100941.38;5053399;28;1910;-57
2022/03/12 08:38:32;;;;;;;;;;;;;;;-2.13;61.75;100946.28;5053580;28;1170;-57
2022/03/12 08:40:58;;;;;;;;;;;;;;;-1.59;61.65;100953.16;5053660;28;1161;-58
2022/03/12 08:43:25;;;;;;;;;;;;;;;-1.58;61.28;100943.94;5053337;28;914;-58
2022/03/12 08:45:50;;;;;;;;;;;;;;;-1.97;61.15;100938.75;5053332;28;862;-56
2022/03/12 08:48:17;;;;;;;;;;;;;;;-2.04;61.96;100936.41;5053266;28;917;-56
2022/03/12 08:50:44;;;;;;;;;;;;;;;-2.33;63.38;100953.50;5053274;28;775;-57
2022/03/12 08:53:12;;;;;;;;;;;;;;;-2.29;63.00;100934.78;5068445;28;1097;-56
2022/03/12 08:55:38;;;;;;;;;;;;;;;-2.41;63.81;100946.03;5068457;28;1914;-56
2022/03/12 08:58:04;;;;;;;;;;;;;;;-2.17;63.29;100959.59;5053111;28;855;-56
2022/03/12 09:00:31;;;;;;;;;;;;;;;-1.94;61.18;100951.72;5053025;28;933;-57
2022/03/12 09:02:58;;;;;;;;;;;;;;;-2.20;61.27;100945.81;5053089;28;1348;-56
2022/03/12 09:05:26;;;;;;;;;;;;;;;-2.08;62.22;100943.50;5053319;28;869;-57
2022/03/12 09:07:52;;;;;;;;;;;;;;;-2.00;61.68;100951.00;5052899;28;874;-56
2022/03/12 09:10:20;;;;;;;;;;;;;;;-1.87;62.37;100950.28;5052801;28;970;-56
2022/03/12 09:12:47;;;;;;;;;;;;;;;-2.00;61.85;100936.63;5052913;28;882;-52
2022/03/12 09:15:13;;;;;;;;;;;;;;;-2.05;63.24;100951.03;5052698;28;1867;-56
2022/03/12 09:17:40;;;;;;;;;;;;;;;-1.54;62.97;100949.56;5052599;28;959;-57
2022/03/12 09:20:08;;;;;;;;;;;;;;;-1.67;63.48;100935.63;5052824;28;854;-56
2022/03/12 09:22:34;;;;;;;;;;;;;;;-1.73;64.14;100939.53;5067976;28;969;-57
2022/03/12 09:25:02;;;;;;;;;;;;;;;-1.71;65.18;100940.06;5052453;28;851;-56
2022/03/12 09:27:28;;;;;;;;;;;;;;;-1.44;64.36;100957.56;5052509;28;906;-56
2022/03/12 09:29:55;;;;;;;;;;;;;;;-1.46;64.89;100946.19;5052532;28;850;-57
2022/03/12 09:32:22;;;;;;;;;;;;;;;-1.31;63.12;100937.81;5052127;28;1268;-56
2022/03/12 09:34:49;;;;;;;;;;;;;;;-1.45;64.05;100951.34;5052361;28;1910;-58
2022/03/12 09:37:15;;;;;;;;;;;;;;;-1.32;62.49;100938.13;5052326;28;1218;-57
2022/03/12 09:39:42;;;;;;;;;;;;;;;-1.38;65.10;100950.97;5052342;28;803;-57
2022/03/12 09:42:09;;;;;;;;;;;;;;;-1.09;62.08;100948.09;5052256;28;854;-55
2022/03/12 09:44:36;;;;;;;;;;;;;;;-0.82;63.36;100943.81;5052280;28;951;-57
2022/03/12 09:47:03;;;;;;;;;;;;;;;-0.50;60.42;100959.28;5052136;28;918;-57
2022/03/12 09:49:29;;;;;;;;;;;;;;;-0.85;63.78;100945.22;5052104;28;834;-56
2022/03/12 09:51:57;;;;;;;;;;;;;;;-0.84;62.80;100943.31;5052130;28;870;-56
2022/03/12 09:54:24;;;;;;;;;;;;;;;-0.85;61.01;100947.16;5051879;28;1893;-59
2022/03/12 09:56:51;;;;;;;;;;;;;;;-0.90;61.24;100953.44;5051934;28;890;-58
2022/03/12 09:59:17;;;;;;;;;;;;;;;-1.28;61.81;100933.72;5051982;28;799;-59
2022/03/12 10:01:44;;;;;;;;;;;;;;;-0.94;60.83;100936.16;5052014;28;1053;-58
2022/03/12 10:04:10;;;;;;;;;;;;;;;-0.56;61.40;100929.78;5051864;28;972;-58
2022/03/12 10:06:39;;;;;;;;;;;;;;;-0.49;61.56;100939.19;5051865;28;874;-58
2022/03/12 10:09:08;;;;;;;;;;;;;;;-0.92;61.32;100936.66;5051839;28;888;-58
2022/03/12 10:11:35;;;;;;;;;;;;;;;-1.12;63.73;100929.66;5051819;28;877;-59
2022/03/12 10:14:01;;;;;;;;;;;;;;;-1.06;63.41;100936.63;5051667;28;863;-59
2022/03/12 10:16:29;;;;;;;;;;;;;;;-0.80;63.25;100930.75;5051527;28;1882;-57
2022/03/12 10:18:55;;;;;;;;;;;;;;;-0.92;64.28;100936.66;5051619;28;918;-57
2022/03/12 10:21:22;;;;;;;;;;;;;;;-0.97;64.13;100936.75;5067086;28;882;-57
2022/03/12 10:23:49;;;;;;;;;;;;;;;-0.84;66.11;100935.19;5051564;28;846;-58
2022/03/12 10:26:16;;;;;;;;;;;;;;;-0.45;62.29;100942.06;5051592;28;806;-59
2022/03/12 10:28:43;;;;;;;;;;;;;;;-0.46;63.43;100919.53;5051491;28;913;-56
2022/03/12 10:31:12;;;;;;;;;;;;;;;-0.55;62.49;100910.50;5051449;28;902;-56
2022/03/12 10:33:39;;;;;;;;;;;;;;;-0.46;62.97;100921.47;5051190;28;1222;-58
2022/03/12 10:36:11;;;;;;;;;;;;;;;-0.25;63.83;100936.25;5050947;28;1967;-58
2022/03/12 10:38:47;;;;;;;;;;;;;;;-0.79;63.81;100937.81;5051680;28;890;-58
2022/03/12 10:41:15;;;;;;;;;;;;;;;-0.81;65.13;100926.44;5051381;28;830;-58
2022/03/12 10:43:45;;;;;;;;;;;;;;;-0.47;65.08;100928.81;5051363;28;933;-58
2022/03/12 10:46:19;;;;;;;;;;;;;;;-0.76;64.54;100920.13;5051327;28;904;-58
2022/03/12 10:48:45;;;;;;;;;;;;;;;-0.94;67.04;100905.50;5051356;28;933;-57
2022/03/12 10:51:12;;;;;;;;;;;;;;;-0.87;66.86;100917.59;5050074;28;878;-58
2022/03/12 10:53:40;;;;;;;;;;;;;;;-0.50;63.50;100906.88;5051234;28;870;-57
2022/03/12 10:56:07;;;;;;;;;;;;;;;-0.76;65.90;100909.25;5051475;28;1894;-57
2022/03/12 10:58:33;;;;;;;;;;;;;;;-0.98;65.21;100924.28;5051210;28;962;-57
2022/03/12 11:01:01;;;;;;;;;;;;;;;-0.99;67.30;100921.88;5066710;28;803;-58
2022/03/12 11:03:34;;;;;;;;;;;;;;;-1.10;66.46;100927.47;5051480;28;835;-56
2022/03/12 11:06:01;;;;;;;;;;;;;;;-1.29;66.48;100935.63;5051209;28;851;-57
2022/03/12 11:08:28;;;;;;;;;;;;;;;-1.25;65.82;100931.22;5051237;28;803;-59
2022/03/12 11:11:06;;;;;;;;;;;;;;;-1.04;66.79;100912.72;5051141;28;949;-58
2022/03/12 11:13:52;;;;;;;;;;;;;;;-1.21;67.60;100936.88;5051094;28;930;-58
2022/03/12 11:16:32;;;;;;;;;;;;;;;-1.12;67.94;100929.66;5051122;28;1895;-58
2022/03/12 11:18:57;;;;;;;;;;;;;;;-0.99;66.09;100927.28;5050982;28;941;-59
2022/03/12 11:21:37;;;;;;;;;;;;;;;-0.88;67.04;100926.00;5051336;28;1058;-59
2022/03/12 11:24:06;;;;;;;;;;;;;;;-0.50;65.54;100926.69;5050898;28;910;-59
2022/03/12 11:26:43;;;;;;;;;;;;;;;-0.34;63.73;100913.63;5051000;28;874;-59
2022/03/12 11:29:10;;;;;;;;;;;;;;;-0.14;63.92;100914.31;5049704;28;888;-59
2022/03/12 11:31:46;;;;;;;;;;;;;;;-0.02;60.56;100903.75;5051075;28;811;-57
2022/03/12 11:34:19;;;;;;;;;;;;;;;-0.40;60.50;100895.00;5050612;28;1267;-58
2022/03/12 11:36:46;;;;;;;;;;;;;;;-0.18;61.59;100899.72;5051079;28;928;-59
2022/03/12 11:39:18;;;;;;;;;;;;;;;-0.13;62.14;100902.34;5051089;28;941;-59
2022/03/12 11:42:00;;;;;;;;;;;;;;;-0.49;60.98;100894.88;5051122;28;871;-58
2022/03/12 11:44:29;;;;;;;;;;;;;;;-0.98;62.29;100918.03;5051062;28;918;-58
2022/03/12 11:46:56;;;;;;;;;;;;;;;-1.22;63.87;100913.53;5051010;28;946;-58
2022/03/12 11:49:23;;;;;;;;;;;;;;;-1.03;64.76;100919.72;5054144;28;918;-58
2022/03/12 11:51:49;;;;;;;;;;;;;;;-1.07;62.85;100902.47;5054541;28;846;-57
2022/03/12 11:54:16;;;;;;;;;;;;;;;-1.19;63.52;100896.69;5054401;28;859;-58
2022/03/12 11:56:43;;;;;;;;;;;;;;;-0.54;62.93;100897.72;5054536;28;1949;-59
2022/03/12 11:59:10;;;;;;;;;;;;;;;-0.24;59.92;100890.88;5054741;28;800;-57
2022/03/12 12:01:37;;;;;;;;;;;;;;;-0.09;61.72;100878.88;5054485;28;918;-58
2022/03/12 12:04:04;;;;;;;;;;;;;;;0.25;61.45;100875.69;5054535;28;843;-56
2022/03/12 12:06:31;;;;;;;;;;;;;;;-0.06;61.81;100883.72;5069784;28;891;-58
2022/03/12 12:08:57;;;;;;;;;;;;;;;-0.19;60.65;100890.78;5054546;28;782;-58
2022/03/12 12:11:23;;;;;;;;;;;;;;;-0.43;62.00;100875.50;5054317;28;792;-58
2022/03/12 12:13:50;;;;;;;;;;;;;;;-0.38;62.06;100882.75;5053998;28;898;-56
2022/03/12 12:16:18;;;;;;;;;;;;;;;-0.57;63.65;100906.47;5053863;28;1862;-58
2022/03/12 12:18:45;;;;;;;;;;;;;;;-0.85;63.95;100911.84;5054332;28;852;-58
2022/03/12 12:21:16;;;;;;;;;;;;;;;-0.86;64.07;100905.59;5053975;28;890;-58
2022/03/12 12:23:43;;;;;;;;;;;;;;;-0.66;63.73;100909.88;5052459;28;879;-58
2022/03/12 12:26:11;;;;;;;;;;;;;;;-0.55;62.84;100887.97;5053900;28;890;-58
2022/03/12 12:28:53;;;;;;;;;;;;;;;-0.64;62.79;100906.84;5053955;28;964;-58
2022/03/12 12:31:22;;;;;;;;;;;;;;;-0.18;62.06;100918.75;5053943;28;866;-58
2022/03/12 12:33:49;;;;;;;;;;;;;;;-0.17;58.86;100910.31;5053617;28;1294;-59
2022/03/12 12:36:17;;;;;;;;;;;;;;;-0.58;61.01;100891.28;5053835;28;1985;-57
2022/03/12 12:39:04;;;;;;;;;;;;;;;-0.40;60.73;100884.94;5053941;28;922;-57
2022/03/12 12:41:49;;;;;;;;;;;;;;;-0.23;59.30;100877.00;5053702;28;823;-58
2022/03/12 12:44:16;;;;;;;;;;;;;;;0.24;58.77;100870.56;5053365;28;887;-58
2022/03/12 12:46:42;;;;;;;;;;;;;;;0.17;58.26;100888.09;5053322;28;1062;-58
2022/03/12 12:49:08;;;;;;;;;;;;;;;-0.12;57.94;100890.38;5053318;28;799;-58
2022/03/12 12:51:48;;;;;;;;;;;;;;;-0.12;58.90;100884.94;5053159;28;929;-59
2022/03/12 12:54:14;;;;;;;;;;;;;;;-0.05;58.82;100890.75;5052122;28;1383;-58
2022/03/12 12:56:41;;;;;;;;;;;;;;;-0.02;57.82;100884.72;5053149;28;1890;-58
2022/03/12 12:59:13;;;;;;;;;;;;;;;-0.12;58.35;100888.44;5052777;28;815;-59